Accueil
METAR-TAF:

METAR-TAF

Aéroports :

Aéroport international de Guilin Liangjiang

Guilin, Chine

latitude: 25-20N, longitude: 110-18E, altitude: 166 m

Observation

Le bulletin a été fait il y a 39 minutes, à 00:00 UTC
Vent 4 kt de nord
Température 20°C
Humidité 94%
Pression 1012 hPa
Visibilité 10 km ou plus
Nuages épars à une hauteur de 4000 ft
Nuages fragmentés à une hauteur de 6000 ft

METAR: ZGKL 260000Z 35002MPS 9999 SCT040 BKN060 20/19 Q1012 NOSIG

Heure: 08:39 (00:39 UTC)

Prévision

Le bulletin a été fait il y a 3 heures et 26 minutes, à 21:13 UTC
Prévision valable du 26 à 00 UTC au 26 à 24 UTC
Vent 4 kt de nord/nord-est
Visibilité 10 km ou plus
Nuages épars à une hauteur de 3600 ft
Nuages fragmentés à une hauteur de 6000 ft

TAF: ZGKL 252113Z 2600/2624 03002MPS 9999 SCT036 BKN060 TX29/2608Z TN20/2623Z

Observations et prévisions météorologiques de plus de 4000 aéroports (messages METAR et TAF).

Les stations disponibles sont représentées par des disques jaunes et rouges sur la carte.

Passer la souris dessus pour voir le nom de la station.

Cliquer dessus pour voir les observations et prévisions météorologiques.

Pour changer de carte: cliquez sur les boutons verts avec une croix noire pour zoomer, sur le bouton vert avec un tiret pour effectuer un zoom arrière, ou sur les flèches vertes pour les cartes adjacentes.


METAR-TAF: